sensor_id;sensor_type;location;lat;lon;timestamp;P1;durP1;ratioP1;P2;durP2;ratioP2
29938;SDS011;16799;50.844;5.304;2023-05-10T00:02:08;16.80;;;11.17;;
29938;SDS011;16799;50.844;5.304;2023-05-10T00:04:34;13.77;;;10.80;;
29938;SDS011;16799;50.844;5.304;2023-05-10T00:07:00;12.60;;;9.97;;
29938;SDS011;16799;50.844;5.304;2023-05-10T00:09:26;13.00;;;9.50;;
29938;SDS011;16799;50.844;5.304;2023-05-10T00:11:52;16.77;;;10.50;;
29938;SDS011;16799;50.844;5.304;2023-05-10T00:14:17;12.83;;;9.00;;
29938;SDS011;16799;50.844;5.304;2023-05-10T00:16:43;13.03;;;10.43;;
29938;SDS011;16799;50.844;5.304;2023-05-10T00:19:09;11.97;;;10.60;;
29938;SDS011;16799;50.844;5.304;2023-05-10T00:21:35;10.63;;;9.53;;
29938;SDS011;16799;50.844;5.304;2023-05-10T00:24:00;10.47;;;9.50;;
29938;SDS011;16799;50.844;5.304;2023-05-10T00:26:26;11.30;;;9.80;;
29938;SDS011;16799;50.844;5.304;2023-05-10T00:28:51;12.93;;;9.57;;
29938;SDS011;16799;50.844;5.304;2023-05-10T00:31:17;11.57;;;10.40;;
29938;SDS011;16799;50.844;5.304;2023-05-10T00:33:43;14.00;;;10.30;;
29938;SDS011;16799;50.844;5.304;2023-05-10T00:36:08;11.37;;;10.27;;
29938;SDS011;16799;50.844;5.304;2023-05-10T00:38:34;12.13;;;10.77;;
29938;SDS011;16799;50.844;5.304;2023-05-10T00:41:00;17.77;;;10.90;;
29938;SDS011;16799;50.844;5.304;2023-05-10T00:43:25;12.03;;;10.73;;
29938;SDS011;16799;50.844;5.304;2023-05-10T00:45:51;14.50;;;10.67;;
29938;SDS011;16799;50.844;5.304;2023-05-10T00:48:18;14.80;;;12.00;;
29938;SDS011;16799;50.844;5.304;2023-05-10T00:50:43;15.97;;;11.37;;
29938;SDS011;16799;50.844;5.304;2023-05-10T00:53:09;20.30;;;13.20;;
29938;SDS011;16799;50.844;5.304;2023-05-10T00:55:35;25.47;;;12.80;;
29938;SDS011;16799;50.844;5.304;2023-05-10T00:58:02;16.90;;;13.13;;
29938;SDS011;16799;50.844;5.304;2023-05-10T01:00:28;17.57;;;11.67;;
29938;SDS011;16799;50.844;5.304;2023-05-10T01:02:54;19.33;;;12.23;;
29938;SDS011;16799;50.844;5.304;2023-05-10T01:05:20;20.23;;;11.60;;
29938;SDS011;16799;50.844;5.304;2023-05-10T01:07:46;20.47;;;12.60;;
29938;SDS011;16799;50.844;5.304;2023-05-10T01:10:11;24.13;;;12.80;;
29938;SDS011;16799;50.844;5.304;2023-05-10T01:12:38;26.27;;;13.47;;
29938;SDS011;16799;50.844;5.304;2023-05-10T01:15:09;25.03;;;14.30;;
29938;SDS011;16799;50.844;5.304;2023-05-10T01:17:36;24.27;;;15.17;;
29938;SDS011;16799;50.844;5.304;2023-05-10T01:20:05;24.97;;;14.77;;
29938;SDS011;16799;50.844;5.304;2023-05-10T01:25:31;21.20;;;15.10;;
29938;SDS011;16799;50.844;5.304;2023-05-10T01:34:32;30.50;;;13.80;;
29938;SDS011;16799;50.844;5.304;2023-05-10T01:37:10;27.87;;;14.70;;
29938;SDS011;16799;50.844;5.304;2023-05-10T01:39:44;23.03;;;13.70;;
29938;SDS011;16799;50.844;5.304;2023-05-10T01:42:16;27.67;;;16.00;;
29938;SDS011;16799;50.844;5.304;2023-05-10T01:44:49;19.60;;;14.63;;
29938;SDS011;16799;50.844;5.304;2023-05-10T01:47:38;28.13;;;16.10;;
29938;SDS011;16799;50.844;5.304;2023-05-10T01:50:10;34.07;;;15.40;;
29938;SDS011;16799;50.844;5.304;2023-05-10T01:52:44;29.83;;;16.10;;
29938;SDS011;16799;50.844;5.304;2023-05-10T01:55:15;18.90;;;13.93;;
29938;SDS011;16799;50.844;5.304;2023-05-10T01:57:43;30.40;;;15.33;;
29938;SDS011;16799;50.844;5.304;2023-05-10T02:00:11;20.00;;;14.33;;
29938;SDS011;16799;50.844;5.304;2023-05-10T02:02:42;19.30;;;13.67;;
29938;SDS011;16799;50.844;5.304;2023-05-10T02:05:12;25.17;;;13.50;;
29938;SDS011;16799;50.844;5.304;2023-05-10T02:07:39;23.53;;;16.50;;
29938;SDS011;16799;50.844;5.304;2023-05-10T02:10:07;27.43;;;15.60;;
29938;SDS011;16799;50.844;5.304;2023-05-10T02:12:44;25.33;;;15.30;;
29938;SDS011;16799;50.844;5.304;2023-05-10T02:15:12;31.03;;;15.53;;
29938;SDS011;16799;50.844;5.304;2023-05-10T02:17:42;27.33;;;14.93;;
29938;SDS011;16799;50.844;5.304;2023-05-10T02:20:10;24.67;;;15.60;;
29938;SDS011;16799;50.844;5.304;2023-05-10T02:22:37;23.03;;;15.80;;
29938;SDS011;16799;50.844;5.304;2023-05-10T02:25:05;21.93;;;15.00;;
29938;SDS011;16799;50.844;5.304;2023-05-10T02:27:33;31.60;;;19.10;;
29938;SDS011;16799;50.844;5.304;2023-05-10T02:29:59;32.60;;;18.33;;
29938;SDS011;16799;50.844;5.304;2023-05-10T02:32:27;33.43;;;16.03;;
29938;SDS011;16799;50.844;5.304;2023-05-10T02:34:54;33.03;;;17.53;;
29938;SDS011;16799;50.844;5.304;2023-05-10T02:37:22;52.57;;;20.23;;
29938;SDS011;16799;50.844;5.304;2023-05-10T02:39:49;36.03;;;19.13;;
29938;SDS011;16799;50.844;5.304;2023-05-10T02:42:17;31.30;;;18.60;;
29938;SDS011;16799;50.844;5.304;2023-05-10T02:44:47;39.50;;;20.63;;
29938;SDS011;16799;50.844;5.304;2023-05-10T02:47:15;40.97;;;21.97;;
29938;SDS011;16799;50.844;5.304;2023-05-10T02:49:41;38.43;;;20.50;;
29938;SDS011;16799;50.844;5.304;2023-05-10T02:52:07;49.93;;;21.63;;
29938;SDS011;16799;50.844;5.304;2023-05-10T02:54:35;39.93;;;21.17;;
29938;SDS011;16799;50.844;5.304;2023-05-10T02:57:08;40.73;;;21.37;;
29938;SDS011;16799;50.844;5.304;2023-05-10T02:59:39;44.27;;;21.80;;
29938;SDS011;16799;50.844;5.304;2023-05-10T03:02:07;36.07;;;20.00;;
29938;SDS011;16799;50.844;5.304;2023-05-10T03:04:34;50.33;;;21.83;;
29938;SDS011;16799;50.844;5.304;2023-05-10T03:07:00;39.07;;;23.27;;
29938;SDS011;16799;50.844;5.304;2023-05-10T03:09:26;40.67;;;22.70;;
29938;SDS011;16799;50.844;5.304;2023-05-10T03:12:03;40.47;;;21.63;;
29938;SDS011;16799;50.844;5.304;2023-05-10T03:17:29;45.07;;;25.10;;
29938;SDS011;16799;50.844;5.304;2023-05-10T03:20:35;54.07;;;23.60;;
29938;SDS011;16799;50.844;5.304;2023-05-10T03:25:41;41.20;;;20.13;;
29938;SDS011;16799;50.844;5.304;2023-05-10T03:28:08;35.67;;;20.03;;
29938;SDS011;16799;50.844;5.304;2023-05-10T03:30:34;42.60;;;21.80;;
29938;SDS011;16799;50.844;5.304;2023-05-10T03:33:05;37.70;;;22.17;;
29938;SDS011;16799;50.844;5.304;2023-05-10T03:35:33;33.87;;;18.97;;
29938;SDS011;16799;50.844;5.304;2023-05-10T03:37:59;33.17;;;19.67;;
29938;SDS011;16799;50.844;5.304;2023-05-10T03:40:25;42.57;;;23.97;;
29938;SDS011;16799;50.844;5.304;2023-05-10T03:42:53;40.63;;;21.00;;
29938;SDS011;16799;50.844;5.304;2023-05-10T03:45:20;34.60;;;18.37;;
29938;SDS011;16799;50.844;5.304;2023-05-10T03:47:45;36.40;;;22.00;;
29938;SDS011;16799;50.844;5.304;2023-05-10T03:50:11;35.23;;;20.30;;
29938;SDS011;16799;50.844;5.304;2023-05-10T03:52:37;35.87;;;20.53;;
29938;SDS011;16799;50.844;5.304;2023-05-10T03:55:04;40.67;;;21.40;;
29938;SDS011;16799;50.844;5.304;2023-05-10T03:57:31;42.20;;;20.63;;
29938;SDS011;16799;50.844;5.304;2023-05-10T03:59:57;44.70;;;20.80;;
29938;SDS011;16799;50.844;5.304;2023-05-10T04:02:22;39.43;;;21.00;;
29938;SDS011;16799;50.844;5.304;2023-05-10T04:04:48;42.80;;;21.50;;
29938;SDS011;16799;50.844;5.304;2023-05-10T04:07:14;36.03;;;21.60;;
29938;SDS011;16799;50.844;5.304;2023-05-10T04:09:40;34.90;;;19.90;;
29938;SDS011;16799;50.844;5.304;2023-05-10T04:12:05;36.50;;;19.90;;
29938;SDS011;16799;50.844;5.304;2023-05-10T04:14:31;35.37;;;21.20;;
29938;SDS011;16799;50.844;5.304;2023-05-10T04:16:57;33.57;;;19.27;;
29938;SDS011;16799;50.844;5.304;2023-05-10T04:19:23;38.20;;;21.67;;
29938;SDS011;16799;50.844;5.304;2023-05-10T04:21:48;36.13;;;17.97;;
29938;SDS011;16799;50.844;5.304;2023-05-10T04:24:14;38.70;;;19.60;;
29938;SDS011;16799;50.844;5.304;2023-05-10T04:26:40;28.63;;;19.90;;
29938;SDS011;16799;50.844;5.304;2023-05-10T04:29:05;29.20;;;19.20;;
29938;SDS011;16799;50.844;5.304;2023-05-10T04:31:31;27.53;;;18.50;;
29938;SDS011;16799;50.844;5.304;2023-05-10T04:33:57;24.30;;;17.07;;
29938;SDS011;16799;50.844;5.304;2023-05-10T04:36:23;28.83;;;17.20;;
29938;SDS011;16799;50.844;5.304;2023-05-10T04:38:48;30.20;;;17.63;;
29938;SDS011;16799;50.844;5.304;2023-05-10T04:41:14;28.30;;;15.73;;
29938;SDS011;16799;50.844;5.304;2023-05-10T04:43:40;32.60;;;17.73;;
29938;SDS011;16799;50.844;5.304;2023-05-10T04:46:05;28.90;;;18.13;;
29938;SDS011;16799;50.844;5.304;2023-05-10T04:48:32;30.40;;;16.83;;
29938;SDS011;16799;50.844;5.304;2023-05-10T04:50:58;33.30;;;17.70;;
29938;SDS011;16799;50.844;5.304;2023-05-10T04:53:23;30.13;;;16.90;;
29938;SDS011;16799;50.844;5.304;2023-05-10T04:55:49;35.97;;;18.43;;
29938;SDS011;16799;50.844;5.304;2023-05-10T04:58:14;33.97;;;17.37;;
29938;SDS011;16799;50.844;5.304;2023-05-10T05:00:40;36.00;;;16.07;;
29938;SDS011;16799;50.844;5.304;2023-05-10T05:03:06;23.03;;;15.60;;
29938;SDS011;16799;50.844;5.304;2023-05-10T05:05:32;26.63;;;16.10;;
29938;SDS011;16799;50.844;5.304;2023-05-10T05:07:57;24.03;;;16.20;;
29938;SDS011;16799;50.844;5.304;2023-05-10T05:10:23;17.20;;;13.40;;
29938;SDS011;16799;50.844;5.304;2023-05-10T05:12:49;18.97;;;13.00;;
29938;SDS011;16799;50.844;5.304;2023-05-10T05:15:14;19.60;;;14.37;;
29938;SDS011;16799;50.844;5.304;2023-05-10T05:17:41;20.07;;;11.93;;
29938;SDS011;16799;50.844;5.304;2023-05-10T05:20:10;22.40;;;11.93;;
29938;SDS011;16799;50.844;5.304;2023-05-10T05:22:36;19.17;;;12.53;;
29938;SDS011;16799;50.844;5.304;2023-05-10T05:25:02;16.60;;;11.10;;
29938;SDS011;16799;50.844;5.304;2023-05-10T05:27:28;27.73;;;10.80;;
29938;SDS011;16799;50.844;5.304;2023-05-10T05:29:55;13.67;;;9.87;;
29938;SDS011;16799;50.844;5.304;2023-05-10T05:32:22;16.50;;;11.30;;
29938;SDS011;16799;50.844;5.304;2023-05-10T05:34:48;19.63;;;12.00;;
29938;SDS011;16799;50.844;5.304;2023-05-10T05:37:14;22.57;;;10.50;;
29938;SDS011;16799;50.844;5.304;2023-05-10T05:39:40;15.00;;;10.77;;
29938;SDS011;16799;50.844;5.304;2023-05-10T05:42:07;13.37;;;9.80;;
29938;SDS011;16799;50.844;5.304;2023-05-10T05:44:33;16.07;;;9.97;;
29938;SDS011;16799;50.844;5.304;2023-05-10T05:46:59;12.80;;;10.17;;
29938;SDS011;16799;50.844;5.304;2023-05-10T05:49:25;12.50;;;9.17;;
29938;SDS011;16799;50.844;5.304;2023-05-10T05:51:50;13.67;;;9.37;;
29938;SDS011;16799;50.844;5.304;2023-05-10T05:54:16;15.97;;;11.03;;
29938;SDS011;16799;50.844;5.304;2023-05-10T05:56:42;16.30;;;10.57;;
29938;SDS011;16799;50.844;5.304;2023-05-10T05:59:09;13.20;;;10.93;;
29938;SDS011;16799;50.844;5.304;2023-05-10T06:01:35;19.20;;;13.80;;
29938;SDS011;16799;50.844;5.304;2023-05-10T06:04:01;21.53;;;13.00;;
29938;SDS011;16799;50.844;5.304;2023-05-10T06:06:26;20.73;;;13.63;;
29938;SDS011;16799;50.844;5.304;2023-05-10T06:08:52;24.17;;;14.87;;
29938;SDS011;16799;50.844;5.304;2023-05-10T06:11:18;25.73;;;15.10;;
29938;SDS011;16799;50.844;5.304;2023-05-10T06:13:45;29.10;;;17.30;;
29938;SDS011;16799;50.844;5.304;2023-05-10T06:16:12;32.07;;;18.90;;
29938;SDS011;16799;50.844;5.304;2023-05-10T06:18:38;34.97;;;18.67;;
29938;SDS011;16799;50.844;5.304;2023-05-10T06:21:04;40.27;;;21.43;;
29938;SDS011;16799;50.844;5.304;2023-05-10T06:23:29;43.37;;;22.90;;
29938;SDS011;16799;50.844;5.304;2023-05-10T06:25:55;42.20;;;21.80;;
29938;SDS011;16799;50.844;5.304;2023-05-10T06:28:21;47.27;;;22.77;;
29938;SDS011;16799;50.844;5.304;2023-05-10T06:30:46;50.87;;;23.00;;
29938;SDS011;16799;50.844;5.304;2023-05-10T06:33:12;55.93;;;23.10;;
29938;SDS011;16799;50.844;5.304;2023-05-10T06:35:38;51.07;;;23.70;;
29938;SDS011;16799;50.844;5.304;2023-05-10T06:38:04;43.43;;;21.93;;
29938;SDS011;16799;50.844;5.304;2023-05-10T06:40:29;50.97;;;24.57;;
29938;SDS011;16799;50.844;5.304;2023-05-10T06:42:55;43.40;;;21.97;;
29938;SDS011;16799;50.844;5.304;2023-05-10T06:45:21;46.53;;;22.73;;
29938;SDS011;16799;50.844;5.304;2023-05-10T06:47:47;43.83;;;22.47;;
29938;SDS011;16799;50.844;5.304;2023-05-10T06:50:12;42.97;;;22.03;;
29938;SDS011;16799;50.844;5.304;2023-05-10T06:52:38;42.83;;;23.03;;
29938;SDS011;16799;50.844;5.304;2023-05-10T06:55:04;51.90;;;24.03;;
29938;SDS011;16799;50.844;5.304;2023-05-10T06:57:30;51.20;;;23.40;;
29938;SDS011;16799;50.844;5.304;2023-05-10T06:59:57;47.27;;;21.73;;
29938;SDS011;16799;50.844;5.304;2023-05-10T07:02:25;45.10;;;23.80;;
29938;SDS011;16799;50.844;5.304;2023-05-10T07:04:51;42.73;;;21.87;;
29938;SDS011;16799;50.844;5.304;2023-05-10T07:07:17;41.70;;;20.40;;
29938;SDS011;16799;50.844;5.304;2023-05-10T07:09:43;41.87;;;22.40;;
29938;SDS011;16799;50.844;5.304;2023-05-10T07:12:09;42.50;;;21.83;;
29938;SDS011;16799;50.844;5.304;2023-05-10T07:14:34;28.10;;;16.83;;
29938;SDS011;16799;50.844;5.304;2023-05-10T07:17:00;21.20;;;10.53;;
29938;SDS011;16799;50.844;5.304;2023-05-10T07:19:26;11.80;;;9.37;;
29938;SDS011;16799;50.844;5.304;2023-05-10T07:21:51;7.20;;;5.17;;
29938;SDS011;16799;50.844;5.304;2023-05-10T07:24:17;5.40;;;5.00;;
29938;SDS011;16799;50.844;5.304;2023-05-10T07:26:43;5.13;;;4.60;;
29938;SDS011;16799;50.844;5.304;2023-05-10T07:29:09;12.10;;;5.33;;
29938;SDS011;16799;50.844;5.304;2023-05-10T07:31:35;6.97;;;5.60;;
29938;SDS011;16799;50.844;5.304;2023-05-10T07:34:00;4.63;;;4.27;;
29938;SDS011;16799;50.844;5.304;2023-05-10T07:36:26;4.50;;;2.93;;
29938;SDS011;16799;50.844;5.304;2023-05-10T07:38:52;3.63;;;3.27;;
29938;SDS011;16799;50.844;5.304;2023-05-10T07:41:18;2.77;;;2.57;;
29938;SDS011;16799;50.844;5.304;2023-05-10T07:43:44;2.60;;;2.40;;
29938;SDS011;16799;50.844;5.304;2023-05-10T07:46:09;4.43;;;3.13;;
29938;SDS011;16799;50.844;5.304;2023-05-10T07:48:36;2.43;;;2.23;;
29938;SDS011;16799;50.844;5.304;2023-05-10T07:51:02;1.40;;;1.30;;
29938;SDS011;16799;50.844;5.304;2023-05-10T07:53:27;2.90;;;1.90;;
29938;SDS011;16799;50.844;5.304;2023-05-10T07:55:54;3.07;;;2.30;;
29938;SDS011;16799;50.844;5.304;2023-05-10T07:58:23;4.70;;;2.20;;
29938;SDS011;16799;50.844;5.304;2023-05-10T08:00:49;2.10;;;1.90;;
29938;SDS011;16799;50.844;5.304;2023-05-10T08:03:14;5.27;;;2.97;;
29938;SDS011;16799;50.844;5.304;2023-05-10T08:05:40;1.70;;;1.57;;
29938;SDS011;16799;50.844;5.304;2023-05-10T08:08:06;6.03;;;2.60;;
29938;SDS011;16799;50.844;5.304;2023-05-10T08:10:32;2.70;;;1.77;;
29938;SDS011;16799;50.844;5.304;2023-05-10T08:12:57;1.90;;;1.80;;
29938;SDS011;16799;50.844;5.304;2023-05-10T08:15:23;2.50;;;2.30;;
29938;SDS011;16799;50.844;5.304;2023-05-10T08:17:50;2.07;;;1.97;;
29938;SDS011;16799;50.844;5.304;2023-05-10T08:20:16;3.10;;;1.80;;
29938;SDS011;16799;50.844;5.304;2023-05-10T08:22:44;2.50;;;2.30;;
29938;SDS011;16799;50.844;5.304;2023-05-10T08:25:10;2.70;;;2.27;;
29938;SDS011;16799;50.844;5.304;2023-05-10T08:27:36;4.60;;;2.10;;
29938;SDS011;16799;50.844;5.304;2023-05-10T08:30:02;4.40;;;2.60;;
29938;SDS011;16799;50.844;5.304;2023-05-10T08:32:28;3.43;;;3.10;;
29938;SDS011;16799;50.844;5.304;2023-05-10T08:34:53;2.80;;;2.60;;
29938;SDS011;16799;50.844;5.304;2023-05-10T08:37:19;4.03;;;2.80;;
29938;SDS011;16799;50.844;5.304;2023-05-10T08:39:45;3.50;;;3.20;;
29938;SDS011;16799;50.844;5.304;2023-05-10T08:42:12;8.17;;;3.47;;
29938;SDS011;16799;50.844;5.304;2023-05-10T08:44:43;4.13;;;3.83;;
29938;SDS011;16799;50.844;5.304;2023-05-10T08:47:10;3.83;;;3.63;;
29938;SDS011;16799;50.844;5.304;2023-05-10T08:49:37;5.30;;;4.20;;
29938;SDS011;16799;50.844;5.304;2023-05-10T08:52:03;4.57;;;4.27;;
29938;SDS011;16799;50.844;5.304;2023-05-10T08:54:31;5.97;;;4.97;;
29938;SDS011;16799;50.844;5.304;2023-05-10T08:56:58;4.50;;;4.10;;
29938;SDS011;16799;50.844;5.304;2023-05-10T08:59:24;5.00;;;4.60;;
29938;SDS011;16799;50.844;5.304;2023-05-10T09:01:49;9.13;;;6.43;;
29938;SDS011;16799;50.844;5.304;2023-05-10T09:04:16;5.03;;;4.53;;
29938;SDS011;16799;50.844;5.304;2023-05-10T09:06:41;7.03;;;5.40;;
29938;SDS011;16799;50.844;5.304;2023-05-10T09:09:07;6.13;;;5.60;;
29938;SDS011;16799;50.844;5.304;2023-05-10T09:11:33;6.23;;;5.17;;
29938;SDS011;16799;50.844;5.304;2023-05-10T09:13:59;6.37;;;5.20;;
29938;SDS011;16799;50.844;5.304;2023-05-10T09:16:26;7.23;;;6.53;;
29938;SDS011;16799;50.844;5.304;2023-05-10T09:18:52;7.50;;;6.40;;
29938;SDS011;16799;50.844;5.304;2023-05-10T09:21:19;6.63;;;6.03;;
29938;SDS011;16799;50.844;5.304;2023-05-10T09:23:45;6.83;;;6.33;;
29938;SDS011;16799;50.844;5.304;2023-05-10T09:26:11;9.33;;;8.37;;
29938;SDS011;16799;50.844;5.304;2023-05-10T09:28:56;7.57;;;6.63;;
29938;SDS011;16799;50.844;5.304;2023-05-10T09:31:23;8.50;;;6.37;;
29938;SDS011;16799;50.844;5.304;2023-05-10T09:33:50;8.87;;;7.97;;
29938;SDS011;16799;50.844;5.304;2023-05-10T09:36:17;7.50;;;6.60;;
29938;SDS011;16799;50.844;5.304;2023-05-10T09:41:19;19.80;;;9.27;;
29938;SDS011;16799;50.844;5.304;2023-05-10T09:43:47;16.50;;;9.97;;
29938;SDS011;16799;50.844;5.304;2023-05-10T09:46:13;11.37;;;9.17;;
29938;SDS011;16799;50.844;5.304;2023-05-10T09:48:41;14.83;;;10.73;;
29938;SDS011;16799;50.844;5.304;2023-05-10T09:51:18;21.67;;;9.33;;
29938;SDS011;16799;50.844;5.304;2023-05-10T09:53:47;15.73;;;10.10;;
29938;SDS011;16799;50.844;5.304;2023-05-10T09:56:32;16.23;;;10.87;;
29938;SDS011;16799;50.844;5.304;2023-05-10T09:59:02;10.40;;;8.50;;
29938;SDS011;16799;50.844;5.304;2023-05-10T10:01:28;12.27;;;10.13;;
29938;SDS011;16799;50.844;5.304;2023-05-10T10:03:54;14.30;;;10.03;;
29938;SDS011;16799;50.844;5.304;2023-05-10T10:06:22;16.23;;;10.37;;
29938;SDS011;16799;50.844;5.304;2023-05-10T10:08:49;22.63;;;12.33;;
29938;SDS011;16799;50.844;5.304;2023-05-10T10:11:15;16.77;;;11.23;;
29938;SDS011;16799;50.844;5.304;2023-05-10T10:13:41;18.30;;;11.57;;
29938;SDS011;16799;50.844;5.304;2023-05-10T10:16:08;19.63;;;9.70;;
29938;SDS011;16799;50.844;5.304;2023-05-10T10:18:34;18.50;;;11.97;;
29938;SDS011;16799;50.844;5.304;2023-05-10T10:21:03;14.23;;;11.13;;
29938;SDS011;16799;50.844;5.304;2023-05-10T10:23:35;16.40;;;9.83;;
29938;SDS011;16799;50.844;5.304;2023-05-10T10:26:02;13.20;;;9.30;;
29938;SDS011;16799;50.844;5.304;2023-05-10T10:30:54;12.20;;;9.17;;
29938;SDS011;16799;50.844;5.304;2023-05-10T10:35:53;13.57;;;10.43;;
29938;SDS011;16799;50.844;5.304;2023-05-10T10:38:20;14.10;;;9.30;;
29938;SDS011;16799;50.844;5.304;2023-05-10T10:40:46;7.97;;;7.00;;
29938;SDS011;16799;50.844;5.304;2023-05-10T10:43:22;10.43;;;7.93;;
29938;SDS011;16799;50.844;5.304;2023-05-10T10:48:48;9.73;;;8.70;;
29938;SDS011;16799;50.844;5.304;2023-05-10T10:51:17;10.43;;;7.10;;
29938;SDS011;16799;50.844;5.304;2023-05-10T10:53:43;8.00;;;6.47;;
29938;SDS011;16799;50.844;5.304;2023-05-10T10:56:12;12.50;;;8.90;;
29938;SDS011;16799;50.844;5.304;2023-05-10T10:58:40;9.70;;;7.63;;
29938;SDS011;16799;50.844;5.304;2023-05-10T11:01:13;7.63;;;6.80;;
29938;SDS011;16799;50.844;5.304;2023-05-10T11:04:16;13.67;;;8.03;;
29938;SDS011;16799;50.844;5.304;2023-05-10T11:06:40;8.80;;;7.47;;
29938;SDS011;16799;50.844;5.304;2023-05-10T11:09:08;10.53;;;6.53;;
29938;SDS011;16799;50.844;5.304;2023-05-10T11:11:35;11.60;;;6.83;;
29938;SDS011;16799;50.844;5.304;2023-05-10T11:14:05;13.80;;;7.30;;
29938;SDS011;16799;50.844;5.304;2023-05-10T11:16:44;15.03;;;5.67;;
29938;SDS011;16799;50.844;5.304;2023-05-10T11:19:10;6.47;;;5.87;;
29938;SDS011;16799;50.844;5.304;2023-05-10T11:24:30;6.90;;;6.20;;
29938;SDS011;16799;50.844;5.304;2023-05-10T11:26:56;8.80;;;6.70;;
29938;SDS011;16799;50.844;5.304;2023-05-10T11:29:22;7.37;;;5.67;;
29938;SDS011;16799;50.844;5.304;2023-05-10T11:31:51;5.40;;;5.00;;
29938;SDS011;16799;50.844;5.304;2023-05-10T11:34:23;7.70;;;4.50;;
29938;SDS011;16799;50.844;5.304;2023-05-10T11:36:55;4.57;;;4.17;;
29938;SDS011;16799;50.844;5.304;2023-05-10T11:39:25;3.90;;;3.60;;
29938;SDS011;16799;50.844;5.304;2023-05-10T11:41:52;5.77;;;5.33;;
29938;SDS011;16799;50.844;5.304;2023-05-10T11:44:18;5.67;;;5.13;;
29938;SDS011;16799;50.844;5.304;2023-05-10T11:46:43;6.93;;;3.90;;
29938;SDS011;16799;50.844;5.304;2023-05-10T11:49:09;3.97;;;3.70;;
29938;SDS011;16799;50.844;5.304;2023-05-10T11:51:35;4.13;;;3.83;;
29938;SDS011;16799;50.844;5.304;2023-05-10T11:54:05;3.17;;;2.97;;
29938;SDS011;16799;50.844;5.304;2023-05-10T11:56:33;4.67;;;4.13;;
29938;SDS011;16799;50.844;5.304;2023-05-10T11:58:59;7.50;;;4.50;;
29938;SDS011;16799;50.844;5.304;2023-05-10T12:01:26;4.63;;;4.33;;
29938;SDS011;16799;50.844;5.304;2023-05-10T12:03:53;4.60;;;3.87;;
29938;SDS011;16799;50.844;5.304;2023-05-10T12:06:20;4.23;;;3.83;;
29938;SDS011;16799;50.844;5.304;2023-05-10T12:08:47;4.60;;;3.90;;
29938;SDS011;16799;50.844;5.304;2023-05-10T12:11:17;3.67;;;3.37;;
29938;SDS011;16799;50.844;5.304;2023-05-10T12:13:43;4.33;;;3.93;;
29938;SDS011;16799;50.844;5.304;2023-05-10T12:16:18;4.20;;;3.90;;
29938;SDS011;16799;50.844;5.304;2023-05-10T12:18:49;4.23;;;3.67;;
29938;SDS011;16799;50.844;5.304;2023-05-10T12:21:21;5.43;;;4.53;;
29938;SDS011;16799;50.844;5.304;2023-05-10T12:23:51;4.07;;;3.63;;
29938;SDS011;16799;50.844;5.304;2023-05-10T12:26:21;3.33;;;3.03;;
29938;SDS011;16799;50.844;5.304;2023-05-10T12:28:48;3.83;;;3.30;;
29938;SDS011;16799;50.844;5.304;2023-05-10T12:31:13;3.20;;;2.90;;
29938;SDS011;16799;50.844;5.304;2023-05-10T12:33:40;4.57;;;4.00;;
29938;SDS011;16799;50.844;5.304;2023-05-10T12:36:11;4.17;;;3.87;;
29938;SDS011;16799;50.844;5.304;2023-05-10T12:38:41;3.30;;;2.83;;
29938;SDS011;16799;50.844;5.304;2023-05-10T12:41:11;3.50;;;3.20;;
29938;SDS011;16799;50.844;5.304;2023-05-10T12:43:38;5.10;;;4.77;;
29938;SDS011;16799;50.844;5.304;2023-05-10T12:46:08;4.23;;;3.93;;
29938;SDS011;16799;50.844;5.304;2023-05-10T12:48:35;5.80;;;5.20;;
29938;SDS011;16799;50.844;5.304;2023-05-10T12:51:02;4.97;;;4.57;;
29938;SDS011;16799;50.844;5.304;2023-05-10T12:53:28;4.80;;;4.50;;
29938;SDS011;16799;50.844;5.304;2023-05-10T12:55:54;4.93;;;4.43;;
29938;SDS011;16799;50.844;5.304;2023-05-10T12:58:20;3.40;;;3.10;;
29938;SDS011;16799;50.844;5.304;2023-05-10T13:00:46;4.17;;;3.87;;
29938;SDS011;16799;50.844;5.304;2023-05-10T13:03:11;3.90;;;3.60;;
29938;SDS011;16799;50.844;5.304;2023-05-10T13:05:37;3.33;;;3.03;;
29938;SDS011;16799;50.844;5.304;2023-05-10T13:08:03;4.57;;;4.17;;
29938;SDS011;16799;50.844;5.304;2023-05-10T13:10:29;3.77;;;3.57;;
29938;SDS011;16799;50.844;5.304;2023-05-10T13:12:56;4.17;;;3.87;;
29938;SDS011;16799;50.844;5.304;2023-05-10T13:15:23;4.13;;;3.93;;
29938;SDS011;16799;50.844;5.304;2023-05-10T13:17:50;4.57;;;4.23;;
29938;SDS011;16799;50.844;5.304;2023-05-10T13:20:15;2.87;;;2.67;;
29938;SDS011;16799;50.844;5.304;2023-05-10T13:22:42;3.70;;;3.50;;
29938;SDS011;16799;50.844;5.304;2023-05-10T13:25:09;3.10;;;2.90;;
29938;SDS011;16799;50.844;5.304;2023-05-10T13:27:35;4.07;;;3.77;;
29938;SDS011;16799;50.844;5.304;2023-05-10T13:30:02;3.50;;;3.30;;
29938;SDS011;16799;50.844;5.304;2023-05-10T13:32:28;3.27;;;2.97;;
29938;SDS011;16799;50.844;5.304;2023-05-10T13:34:54;3.73;;;3.10;;
29938;SDS011;16799;50.844;5.304;2023-05-10T13:37:20;2.53;;;2.43;;
29938;SDS011;16799;50.844;5.304;2023-05-10T13:39:46;2.33;;;2.20;;
29938;SDS011;16799;50.844;5.304;2023-05-10T13:42:12;2.50;;;2.30;;
29938;SDS011;16799;50.844;5.304;2023-05-10T13:44:38;3.30;;;3.10;;
29938;SDS011;16799;50.844;5.304;2023-05-10T13:47:04;3.10;;;2.90;;
29938;SDS011;16799;50.844;5.304;2023-05-10T13:49:30;2.80;;;2.60;;
29938;SDS011;16799;50.844;5.304;2023-05-10T13:51:56;3.60;;;3.40;;
29938;SDS011;16799;50.844;5.304;2023-05-10T13:54:21;3.17;;;2.90;;
29938;SDS011;16799;50.844;5.304;2023-05-10T13:56:48;2.47;;;2.27;;
29938;SDS011;16799;50.844;5.304;2023-05-10T13:59:14;3.10;;;2.90;;
29938;SDS011;16799;50.844;5.304;2023-05-10T14:01:40;2.30;;;2.20;;
29938;SDS011;16799;50.844;5.304;2023-05-10T14:04:07;2.30;;;2.20;;
29938;SDS011;16799;50.844;5.304;2023-05-10T14:06:35;2.60;;;2.40;;
29938;SDS011;16799;50.844;5.304;2023-05-10T14:09:01;2.07;;;1.97;;
29938;SDS011;16799;50.844;5.304;2023-05-10T14:11:30;2.10;;;1.90;;
29938;SDS011;16799;50.844;5.304;2023-05-10T14:13:55;2.50;;;1.87;;
29938;SDS011;16799;50.844;5.304;2023-05-10T14:16:21;2.67;;;2.47;;
29938;SDS011;16799;50.844;5.304;2023-05-10T14:18:47;2.87;;;2.63;;
29938;SDS011;16799;50.844;5.304;2023-05-10T14:21:12;3.03;;;2.80;;
29938;SDS011;16799;50.844;5.304;2023-05-10T14:23:38;2.40;;;2.20;;
29938;SDS011;16799;50.844;5.304;2023-05-10T14:26:04;2.43;;;2.23;;
29938;SDS011;16799;50.844;5.304;2023-05-10T14:28:31;2.50;;;2.17;;
29938;SDS011;16799;50.844;5.304;2023-05-10T14:30:56;3.20;;;2.03;;
29938;SDS011;16799;50.844;5.304;2023-05-10T14:33:22;3.17;;;2.97;;
29938;SDS011;16799;50.844;5.304;2023-05-10T14:35:48;3.50;;;3.30;;
29938;SDS011;16799;50.844;5.304;2023-05-10T14:38:14;3.00;;;2.80;;
29938;SDS011;16799;50.844;5.304;2023-05-10T14:40:40;2.97;;;2.77;;
29938;SDS011;16799;50.844;5.304;2023-05-10T14:43:05;3.83;;;2.90;;
29938;SDS011;16799;50.844;5.304;2023-05-10T14:45:31;3.70;;;3.40;;
29938;SDS011;16799;50.844;5.304;2023-05-10T14:47:57;3.50;;;3.30;;
29938;SDS011;16799;50.844;5.304;2023-05-10T14:50:24;2.93;;;2.73;;
29938;SDS011;16799;50.844;5.304;2023-05-10T14:52:49;2.87;;;2.57;;
29938;SDS011;16799;50.844;5.304;2023-05-10T14:55:15;3.10;;;1.80;;
29938;SDS011;16799;50.844;5.304;2023-05-10T14:57:41;5.83;;;2.20;;
29938;SDS011;16799;50.844;5.304;2023-05-10T15:00:07;2.70;;;1.57;;
29938;SDS011;16799;50.844;5.304;2023-05-10T15:02:33;2.03;;;1.83;;